createdAt,value
2018-08-19T00:02:14.846Z,6.47
2018-08-19T00:04:44.458Z,7.22
2018-08-19T00:07:13.167Z,6.78
2018-08-19T00:09:41.964Z,6.90
2018-08-19T00:12:10.685Z,6.80
2018-08-19T00:14:39.380Z,7.33
2018-08-19T00:17:08.096Z,7.43
2018-08-19T00:19:36.761Z,7.60
2018-08-19T00:22:05.513Z,7.40
2018-08-19T00:24:34.382Z,8.08
2018-08-19T00:27:03.123Z,7.50
2018-08-19T00:29:36.718Z,8.50
2018-08-19T00:32:05.714Z,7.27
2018-08-19T00:34:35.081Z,7.43
2018-08-19T00:37:05.717Z,8.03
2018-08-19T00:39:34.704Z,7.27
2018-08-19T00:42:04.354Z,7.07
2018-08-19T00:44:33.760Z,6.57
2018-08-19T00:47:02.442Z,8.25
2018-08-19T00:49:31.143Z,8.40
2018-08-19T00:52:00.909Z,7.93
2018-08-19T00:54:30.859Z,6.90
2018-08-19T00:57:00.654Z,7.37
2018-08-19T00:59:30.576Z,8.38
2018-08-19T01:01:59.406Z,7.20
2018-08-19T01:04:28.591Z,6.53
2018-08-19T01:06:59.153Z,6.70
2018-08-19T01:09:30.852Z,8.90
2018-08-19T01:11:59.626Z,7.60
2018-08-19T01:14:28.280Z,7.40
2018-08-19T01:16:56.945Z,6.37
2018-08-19T01:19:25.852Z,6.90
2018-08-19T01:21:54.862Z,7.23
2018-08-19T01:24:23.668Z,6.43
2018-08-19T01:26:52.396Z,7.43
2018-08-19T01:29:37.247Z,8.93
2018-08-19T01:32:12.184Z,7.80
2018-08-19T01:34:44.483Z,8.30
2018-08-19T01:37:13.895Z,7.20
2018-08-19T01:39:42.543Z,7.07
2018-08-19T01:42:11.269Z,7.23
2018-08-19T01:44:41.872Z,7.40
2018-08-19T01:47:10.546Z,8.30
2018-08-19T01:49:39.182Z,7.63
2018-08-19T01:52:08.570Z,8.43
2018-08-19T01:54:37.227Z,8.90
2018-08-19T01:57:05.912Z,8.20
2018-08-19T01:59:35.526Z,9.07
2018-08-19T02:02:05.520Z,8.80
2018-08-19T02:04:43.184Z,9.97
2018-08-19T02:07:12.017Z,10.10
2018-08-19T02:09:55.954Z,9.20
2018-08-19T02:12:25.698Z,9.27
2018-08-19T02:14:54.340Z,9.57
2018-08-19T02:17:22.998Z,10.50
2018-08-19T02:19:51.732Z,9.90
2018-08-19T02:22:20.358Z,9.90
2018-08-19T02:24:52.961Z,10.20
2018-08-19T02:27:21.808Z,10.07
2018-08-19T02:29:50.516Z,10.33
2018-08-19T02:32:19.246Z,11.57
2018-08-19T02:34:47.955Z,10.43
2018-08-19T02:37:17.561Z,10.40
2018-08-19T02:39:49.116Z,10.43
2018-08-19T02:42:27.006Z,9.75
2018-08-19T02:45:01.926Z,8.77
2018-08-19T02:47:31.048Z,10.50
2018-08-19T02:49:59.790Z,10.27
2018-08-19T02:52:33.902Z,11.20
2018-08-19T02:55:03.854Z,12.50
2018-08-19T02:57:33.253Z,12.17
2018-08-19T03:00:02.813Z,12.03
2018-08-19T03:02:34.671Z,11.73
2018-08-19T03:05:08.045Z,11.33
2018-08-19T03:07:36.702Z,11.10
2018-08-19T03:10:09.605Z,11.60
2018-08-19T03:12:38.602Z,12.20
2018-08-19T03:15:08.501Z,13.07
2018-08-19T03:17:37.252Z,13.27
2018-08-19T03:20:07.856Z,13.33
2018-08-19T03:22:36.526Z,13.83
2018-08-19T03:25:05.747Z,13.73
2018-08-19T03:27:34.417Z,14.33
2018-08-19T03:30:04.615Z,14.53
2018-08-19T03:32:33.285Z,13.10
2018-08-19T03:35:07.669Z,14.03
2018-08-19T03:37:37.328Z,15.77
2018-08-19T03:40:06.747Z,15.67
2018-08-19T03:42:35.368Z,14.70
2018-08-19T03:45:09.297Z,14.43
2018-08-19T03:47:37.964Z,14.17
2018-08-19T03:50:12.000Z,14.27
2018-08-19T03:52:42.338Z,14.23
2018-08-19T03:55:16.260Z,13.50
2018-08-19T03:57:44.926Z,13.33
2018-08-19T04:00:14.476Z,13.80
2018-08-19T04:03:45.716Z,14.83
2018-08-19T04:06:14.385Z,13.97
2018-08-19T04:08:45.958Z,13.67
2018-08-19T04:11:14.639Z,13.60
2018-08-19T04:13:43.280Z,14.87
2018-08-19T04:16:12.585Z,14.10
2018-08-19T04:18:45.349Z,13.90
2018-08-19T04:21:15.376Z,13.80
2018-08-19T04:23:46.186Z,14.70
2018-08-19T04:26:14.907Z,13.77
2018-08-19T04:28:44.706Z,13.47
2018-08-19T04:31:18.636Z,14.23
2018-08-19T04:33:48.385Z,13.60
2018-08-19T04:36:18.271Z,14.07
2018-08-19T04:38:47.024Z,13.63
2018-08-19T04:41:16.228Z,13.47
2018-08-19T04:43:45.580Z,12.60
2018-08-19T04:46:14.286Z,12.97
2018-08-19T04:48:44.759Z,12.10
2018-08-19T04:51:20.065Z,12.93
2018-08-19T04:53:48.795Z,12.17
2018-08-19T04:56:17.619Z,11.90
2018-08-19T04:58:46.327Z,12.37
2018-08-19T05:01:15.023Z,11.63
2018-08-19T05:03:45.059Z,11.37
2018-08-19T05:06:16.689Z,11.13
2018-08-19T05:08:45.347Z,10.20
2018-08-19T05:11:14.088Z,10.87
2018-08-19T05:13:42.718Z,11.53
2018-08-19T05:16:11.374Z,9.43
2018-08-19T05:18:40.268Z,10.77
2018-08-19T05:21:15.133Z,10.43
2018-08-19T05:23:43.798Z,11.43
2018-08-19T05:26:12.653Z,11.07
2018-08-19T05:28:41.801Z,9.90
2018-08-19T05:31:10.580Z,10.30
2018-08-19T05:33:41.854Z,10.93
2018-08-19T05:36:10.259Z,10.07
2018-08-19T05:38:38.959Z,11.30
2018-08-19T05:41:09.945Z,11.10
2018-08-19T05:43:38.669Z,10.27
2018-08-19T05:46:07.360Z,11.03
2018-08-19T05:48:36.094Z,11.47
2018-08-19T05:51:04.783Z,12.43
2018-08-19T05:53:34.323Z,11.43
2018-08-19T05:56:03.028Z,12.80
2018-08-19T05:58:31.713Z,14.13
2018-08-19T06:01:01.303Z,14.40
2018-08-19T06:03:30.266Z,15.57
2018-08-19T06:05:59.353Z,15.93
2018-08-19T06:08:28.046Z,14.80
2018-08-19T06:10:56.779Z,15.77
2018-08-19T06:13:27.468Z,15.13
2018-08-19T06:15:56.279Z,15.97
2018-08-19T06:18:24.892Z,16.57
2018-08-19T06:20:53.527Z,18.63
2018-08-19T06:23:22.311Z,18.33
2018-08-19T06:25:50.985Z,19.97
2018-08-19T06:28:19.695Z,20.47
2018-08-19T06:30:48.386Z,22.37
2018-08-19T06:33:17.046Z,22.97
2018-08-19T06:35:45.692Z,23.33
2018-08-19T06:38:14.363Z,22.87
2018-08-19T06:40:43.173Z,23.03
2018-08-19T06:43:11.875Z,22.67
2018-08-19T06:45:40.562Z,21.10
2018-08-19T06:48:09.338Z,20.90
2018-08-19T06:50:38.065Z,21.00
2018-08-19T06:53:06.852Z,21.43
2018-08-19T06:55:35.670Z,21.43
2018-08-19T06:58:04.465Z,19.83
2018-08-19T07:00:34.725Z,18.90
2018-08-19T07:03:04.867Z,18.03
2018-08-19T07:05:35.118Z,18.70
2018-08-19T07:08:03.855Z,19.07
2018-08-19T07:10:37.933Z,18.05
2018-08-19T07:13:10.161Z,17.40
2018-08-19T07:15:40.286Z,17.62
2018-08-19T07:18:10.570Z,19.02
2018-08-19T07:20:40.470Z,16.85
2018-08-19T07:23:09.736Z,15.98
2018-08-19T07:25:41.437Z,15.38
2018-08-19T07:28:11.379Z,15.72
2018-08-19T07:30:40.621Z,15.13
2018-08-19T07:33:09.616Z,16.32
2018-08-19T07:35:38.416Z,14.33
2018-08-19T07:38:07.109Z,14.47
2018-08-19T07:40:35.945Z,14.73
2018-08-19T07:43:04.763Z,14.07
2018-08-19T07:45:33.468Z,12.75
2018-08-19T07:48:02.193Z,13.30
2018-08-19T07:50:30.842Z,12.90
2018-08-19T07:52:59.530Z,12.40
2018-08-19T07:55:28.181Z,11.63
2018-08-19T07:57:56.907Z,12.25
2018-08-19T08:00:30.943Z,12.18
2018-08-19T08:02:59.650Z,10.75
2018-08-19T08:05:32.865Z,10.98
2018-08-19T08:08:01.607Z,9.65
2018-08-19T08:10:30.350Z,8.83
2018-08-19T08:13:04.189Z,8.63
2018-08-19T08:15:34.361Z,9.38
2018-08-19T08:18:03.090Z,8.33
2018-08-19T08:20:31.745Z,7.90
2018-08-19T08:23:04.132Z,7.22
2018-08-19T08:25:32.845Z,8.20
2018-08-19T08:28:01.563Z,8.38
2018-08-19T08:30:30.284Z,7.90
2018-08-19T08:32:59.043Z,7.40
2018-08-19T08:35:27.721Z,7.35
2018-08-19T08:37:56.407Z,7.10
2018-08-19T08:40:25.125Z,7.37
2018-08-19T08:42:53.816Z,7.55
2018-08-19T08:45:26.537Z,7.75
2018-08-19T08:47:55.249Z,8.25
2018-08-19T08:50:24.161Z,8.50
2018-08-19T08:52:52.857Z,8.80
2018-08-19T08:55:21.509Z,8.68
2018-08-19T08:57:50.923Z,9.78
2018-08-19T09:00:19.664Z,9.35
2018-08-19T09:02:48.417Z,9.20
2018-08-19T09:05:17.096Z,9.25
2018-08-19T09:07:45.840Z,10.05
2018-08-19T09:10:14.900Z,9.78
2018-08-19T09:12:45.116Z,9.08
2018-08-19T09:15:14.324Z,9.55
2018-08-19T09:17:43.077Z,9.80
2018-08-19T09:20:12.360Z,10.18
2018-08-19T09:22:41.341Z,9.98
2018-08-19T09:25:10.716Z,10.00
2018-08-19T09:27:40.050Z,8.50
2018-08-19T09:30:10.173Z,9.00
2018-08-19T09:32:54.922Z,9.10
2018-08-19T09:35:23.659Z,9.05
2018-08-19T09:37:57.647Z,8.93
2018-08-19T09:40:27.187Z,8.60
2018-08-19T09:42:56.730Z,8.35
2018-08-19T09:45:25.493Z,8.30
2018-08-19T09:47:54.468Z,8.13
2018-08-19T09:50:23.019Z,8.48
2018-08-19T09:52:51.734Z,8.43
2018-08-19T09:55:27.276Z,8.60
2018-08-19T09:57:56.803Z,8.05
2018-08-19T10:00:26.594Z,8.68
2018-08-19T10:02:55.277Z,8.30
2018-08-19T10:05:25.480Z,8.40
2018-08-19T10:07:55.636Z,7.30
2018-08-19T10:10:24.951Z,8.65
2018-08-19T10:12:53.646Z,7.37
2018-08-19T10:15:22.323Z,7.80
2018-08-19T10:17:51.065Z,7.62
2018-08-19T10:20:19.775Z,8.38
2018-08-19T10:22:48.538Z,6.92
2018-08-19T10:25:18.425Z,6.08
2018-08-19T10:27:50.303Z,7.40
2018-08-19T10:30:19.893Z,7.12
2018-08-19T10:33:12.193Z,7.55
2018-08-19T10:35:40.881Z,7.00
2018-08-19T10:38:09.566Z,6.22
2018-08-19T10:40:38.487Z,6.03
2018-08-19T10:43:10.524Z,6.40
2018-08-19T10:45:42.877Z,6.30
2018-08-19T10:48:13.941Z,6.58
2018-08-19T10:50:42.806Z,5.62
2018-08-19T10:53:17.122Z,6.25
2018-08-19T10:55:46.888Z,6.25
2018-08-19T10:58:15.773Z,6.83
2018-08-19T11:00:44.508Z,6.03
2018-08-19T11:03:20.296Z,6.50
2018-08-19T11:05:50.843Z,5.37
2018-08-19T11:08:19.526Z,5.97
2018-08-19T11:10:48.312Z,5.87
2018-08-19T11:13:20.159Z,5.40
2018-08-19T11:15:50.206Z,6.05
2018-08-19T11:18:29.092Z,6.15
2018-08-19T11:21:00.961Z,6.15
2018-08-19T11:23:29.724Z,6.15
2018-08-19T11:25:58.955Z,6.25
2018-08-19T11:28:53.631Z,5.55
2018-08-19T11:31:27.873Z,5.70
2018-08-19T11:33:58.407Z,6.72
2018-08-19T11:36:33.255Z,5.78
2018-08-19T11:39:02.051Z,5.78
2018-08-19T11:41:32.086Z,6.08
2018-08-19T11:44:06.531Z,6.22
2018-08-19T11:46:35.342Z,6.08
2018-08-19T11:49:13.235Z,5.80
2018-08-19T11:51:54.697Z,6.90
2018-08-19T11:54:24.255Z,6.42
2018-08-19T11:57:02.035Z,5.90
2018-08-19T11:59:35.992Z,6.20
2018-08-19T12:02:06.097Z,6.60
2018-08-19T12:04:34.743Z,6.08
2018-08-19T12:07:03.462Z,6.53
2018-08-19T12:09:32.409Z,7.03
2018-08-19T12:12:04.047Z,6.30
2018-08-19T12:14:36.899Z,6.58
2018-08-19T12:17:09.437Z,5.90
2018-08-19T12:19:39.859Z,6.67
2018-08-19T12:22:11.296Z,7.03
2018-08-19T12:24:44.689Z,6.90
2018-08-19T12:27:14.990Z,7.12
2018-08-19T12:29:44.373Z,7.17
2018-08-19T12:32:28.399Z,6.50
2018-08-19T12:35:01.182Z,6.90
2018-08-19T12:37:31.270Z,6.78
2018-08-19T12:40:00.374Z,7.58
2018-08-19T12:42:29.664Z,6.90
2018-08-19T12:45:02.168Z,6.55
2018-08-19T12:47:30.953Z,6.80
2018-08-19T12:50:01.984Z,6.75
2018-08-19T12:52:32.994Z,6.42
2018-08-19T12:55:11.665Z,6.00
2018-08-19T12:57:41.221Z,6.97
2018-08-19T13:00:20.939Z,6.50
2018-08-19T13:02:51.103Z,6.08
2018-08-19T13:05:20.412Z,6.37
2018-08-19T13:07:49.236Z,6.85
2018-08-19T13:10:18.299Z,5.87
2018-08-19T13:12:52.027Z,5.87
2018-08-19T13:15:21.065Z,6.60
2018-08-19T13:17:49.852Z,6.45
2018-08-19T13:20:18.529Z,6.55
2018-08-19T13:22:52.774Z,6.67
2018-08-19T13:25:22.724Z,6.75
2018-08-19T13:27:51.479Z,6.65
2018-08-19T13:30:20.912Z,6.47
2018-08-19T13:32:50.331Z,6.45
2018-08-19T13:35:19.400Z,6.58
2018-08-19T13:37:48.052Z,6.78
2018-08-19T13:40:16.748Z,7.25
2018-08-19T13:42:45.468Z,7.30
2018-08-19T13:45:15.236Z,7.30
2018-08-19T13:47:46.309Z,7.40
2018-08-19T13:50:15.205Z,7.22
2018-08-19T13:52:44.346Z,7.33
2018-08-19T13:55:14.956Z,7.67
2018-08-19T13:57:43.659Z,7.62
2018-08-19T14:00:14.983Z,7.45
2018-08-19T14:02:44.074Z,6.90
2018-08-19T14:05:12.847Z,7.78
2018-08-19T14:07:41.713Z,7.53
2018-08-19T14:10:11.663Z,7.60
2018-08-19T14:12:40.340Z,8.05
2018-08-19T14:15:09.077Z,7.47
2018-08-19T14:17:37.769Z,8.03
2018-08-19T14:20:07.775Z,8.80
2018-08-19T14:22:36.514Z,8.75
2018-08-19T14:25:06.366Z,7.85
2018-08-19T14:27:35.041Z,7.83
2018-08-19T14:30:03.833Z,7.83
2018-08-19T14:32:38.068Z,8.18
2018-08-19T14:35:07.158Z,7.97
2018-08-19T14:37:35.826Z,8.28
2018-08-19T14:40:05.812Z,7.80
2018-08-19T14:42:34.501Z,7.40
2018-08-19T14:45:03.284Z,7.40
2018-08-19T14:47:32.009Z,8.28
2018-08-19T14:50:00.727Z,7.85
2018-08-19T14:52:29.657Z,7.30
2018-08-19T14:54:58.400Z,8.20
2018-08-19T14:57:27.124Z,7.35
2018-08-19T14:59:55.728Z,8.18
2018-08-19T15:02:24.442Z,7.15
2018-08-19T15:04:53.059Z,8.00
2018-08-19T15:07:21.681Z,8.10
2018-08-19T15:09:52.171Z,8.43
2018-08-19T15:12:22.027Z,8.20
2018-08-19T15:14:51.118Z,7.53
2018-08-19T15:17:19.802Z,8.65
2018-08-19T15:19:50.730Z,8.48
2018-08-19T15:22:20.050Z,8.00
2018-08-19T15:24:49.094Z,7.85
2018-08-19T15:27:17.755Z,7.90
2018-08-19T15:29:49.649Z,8.00
2018-08-19T15:32:19.069Z,8.88
2018-08-19T15:34:47.657Z,14.20
2018-08-19T15:37:16.309Z,8.38
2018-08-19T15:39:44.990Z,9.43
2018-08-19T15:42:15.366Z,8.50
2018-08-19T15:44:44.039Z,7.90
2018-08-19T15:47:12.772Z,7.05
2018-08-19T15:49:41.465Z,7.33
2018-08-19T15:52:10.211Z,7.67
2018-08-19T15:54:42.475Z,7.47
2018-08-19T15:57:11.523Z,6.97
2018-08-19T15:59:40.224Z,7.17
2018-08-19T16:02:08.908Z,7.17
2018-08-19T16:04:37.547Z,7.87
2018-08-19T16:07:06.342Z,6.92
2018-08-19T16:09:35.031Z,7.00
2018-08-19T16:12:03.799Z,7.72
2018-08-19T16:14:33.101Z,7.10
2018-08-19T16:17:02.976Z,7.17
2018-08-19T16:19:31.845Z,7.37
2018-08-19T16:22:00.964Z,7.53
2018-08-19T16:24:29.730Z,7.50
2018-08-19T16:26:58.465Z,6.83
2018-08-19T16:29:27.197Z,7.28
2018-08-19T16:31:55.893Z,7.60
2018-08-19T16:34:24.533Z,7.37
2018-08-19T16:36:53.168Z,7.42
2018-08-19T16:39:22.028Z,7.33
2018-08-19T16:41:50.713Z,7.47
2018-08-19T16:44:19.404Z,7.10
2018-08-19T16:46:48.093Z,8.08
2018-08-19T16:49:16.784Z,7.85
2018-08-19T16:51:45.517Z,8.20
2018-08-19T16:54:14.185Z,7.62
2018-08-19T16:56:42.882Z,7.50
2018-08-19T16:59:11.572Z,7.20
2018-08-19T17:01:40.230Z,8.28
2018-08-19T17:04:09.249Z,7.15
2018-08-19T17:06:38.544Z,7.42
2018-08-19T17:09:10.524Z,7.33
2018-08-19T17:11:39.194Z,7.15
2018-08-19T17:14:10.049Z,6.90
2018-08-19T17:16:38.680Z,7.53
2018-08-19T17:19:07.322Z,7.45
2018-08-19T17:21:36.018Z,7.72
2018-08-19T17:24:04.756Z,7.67
2018-08-19T17:26:33.571Z,7.28
2018-08-19T17:29:07.556Z,7.20
2018-08-19T17:31:36.388Z,7.50
2018-08-19T17:34:12.434Z,7.45
2018-08-19T17:36:41.200Z,7.67
2018-08-19T17:39:14.301Z,7.83
2018-08-19T17:41:42.967Z,7.90
2018-08-19T17:44:11.656Z,7.92
2018-08-19T17:46:40.290Z,7.65
2018-08-19T17:49:14.240Z,8.30
2018-08-19T17:51:42.911Z,7.92
2018-08-19T17:54:16.795Z,7.30
2018-08-19T17:56:45.462Z,7.62
2018-08-19T17:59:14.153Z,7.95
2018-08-19T18:01:44.023Z,7.97
2018-08-19T18:04:12.697Z,7.90
2018-08-19T18:06:41.381Z,8.05
2018-08-19T18:11:40.689Z,7.47
2018-08-19T18:14:09.481Z,7.85
2018-08-19T18:16:38.160Z,6.85
2018-08-19T18:19:06.839Z,7.78
2018-08-19T18:21:38.521Z,7.58
2018-08-19T18:24:07.362Z,8.00
2018-08-19T18:26:36.132Z,7.05
2018-08-19T18:29:04.873Z,7.03
2018-08-19T18:31:33.567Z,7.45
2018-08-19T18:34:03.283Z,7.33
2018-08-19T18:36:35.413Z,6.72
2018-08-19T18:39:06.218Z,6.75
2018-08-19T18:41:36.534Z,7.22
2018-08-19T18:44:07.565Z,7.42
2018-08-19T18:46:36.668Z,7.40
2018-08-19T18:49:09.880Z,7.30
2018-08-19T18:51:38.857Z,7.35
2018-08-19T18:54:10.600Z,7.37
2018-08-19T18:56:39.236Z,7.50
2018-08-19T18:59:08.090Z,7.45
2018-08-19T19:01:36.766Z,8.00
2018-08-19T19:04:05.492Z,7.37
2018-08-19T19:06:34.163Z,6.85
2018-08-19T19:09:02.977Z,8.10
2018-08-19T19:11:31.625Z,7.22
2018-08-19T19:14:03.013Z,8.25
2018-08-19T19:16:35.951Z,7.55
2018-08-19T19:19:04.625Z,7.92
2018-08-19T19:21:33.278Z,8.03
2018-08-19T19:24:01.984Z,7.60
2018-08-19T19:26:35.961Z,7.90
2018-08-19T19:29:09.089Z,7.75
2018-08-19T19:31:37.785Z,8.03
2018-08-19T19:34:11.763Z,7.65
2018-08-19T19:36:40.647Z,7.12
2018-08-19T19:39:09.356Z,6.72
2018-08-19T19:41:38.053Z,7.47
2018-08-19T19:44:23.655Z,7.17
2018-08-19T19:46:53.487Z,7.40
2018-08-19T19:49:22.608Z,7.17
2018-08-19T19:52:05.591Z,7.75
2018-08-19T19:54:34.668Z,6.90
2018-08-19T19:57:03.342Z,6.60
2018-08-19T19:59:33.432Z,6.92
2018-08-19T20:02:02.292Z,7.45
2018-08-19T20:04:34.505Z,7.22
2018-08-19T20:07:03.288Z,7.70
2018-08-19T20:09:35.145Z,8.03
2018-08-19T20:12:03.911Z,7.28
2018-08-19T20:14:36.792Z,7.95
2018-08-19T20:17:05.493Z,7.53
2018-08-19T20:19:34.186Z,8.40
2018-08-19T20:22:03.009Z,7.62
2018-08-19T20:24:31.673Z,7.75
2018-08-19T20:27:00.325Z,7.83
2018-08-19T20:29:28.961Z,8.05
2018-08-19T20:31:57.734Z,7.08
2018-08-19T20:34:26.406Z,7.90
2018-08-19T20:36:55.165Z,7.33
2018-08-19T20:39:23.851Z,8.50
2018-08-19T20:41:52.504Z,8.50
2018-08-19T20:44:21.154Z,7.95
2018-08-19T20:46:53.980Z,7.45
2018-08-19T20:49:22.666Z,7.72
2018-08-19T20:51:51.365Z,7.50
2018-08-19T20:54:20.048Z,8.15
2018-08-19T20:56:48.701Z,7.95
2018-08-19T20:59:22.719Z,8.10
2018-08-19T21:01:51.384Z,7.25
2018-08-19T21:04:20.041Z,7.67
2018-08-19T21:06:48.695Z,7.85
2018-08-19T21:09:17.389Z,7.78
2018-08-19T21:11:46.072Z,6.67
2018-08-19T21:14:14.715Z,6.70
2018-08-19T21:16:43.383Z,7.00
2018-08-19T21:19:12.066Z,7.22
2018-08-19T21:21:40.731Z,7.53
2018-08-19T21:24:09.393Z,7.72
2018-08-19T21:26:38.182Z,7.83
2018-08-19T21:32:48.666Z,6.78
2018-08-19T21:35:17.499Z,7.80
2018-08-19T21:37:47.381Z,8.18
2018-08-19T21:40:50.065Z,7.92
2018-08-19T21:43:18.751Z,7.75
2018-08-19T21:45:47.496Z,7.72
2018-08-19T21:48:16.988Z,7.87
2018-08-19T21:50:45.646Z,8.65
2018-08-19T21:53:15.680Z,7.30
2018-08-19T21:55:47.673Z,8.73
2018-08-19T21:58:16.327Z,8.63
2018-08-19T22:00:55.916Z,8.20
2018-08-19T22:03:29.943Z,8.28
2018-08-19T22:05:58.595Z,8.15
2018-08-19T22:08:27.265Z,7.85
2018-08-19T22:10:55.987Z,6.85
2018-08-19T22:13:24.551Z,7.00
2018-08-19T22:15:53.229Z,6.92
2018-08-19T22:18:23.119Z,6.92
2018-08-19T22:21:07.393Z,6.47
2018-08-19T22:23:41.317Z,6.70
2018-08-19T22:26:10.991Z,7.37
2018-08-19T22:28:39.846Z,7.33
2018-08-19T22:31:20.180Z,8.20
2018-08-19T22:33:53.610Z,7.25
2018-08-19T22:36:22.391Z,7.28
2018-08-19T22:38:51.859Z,6.58
2018-08-19T22:41:23.089Z,7.50
2018-08-19T22:43:52.454Z,7.40
2018-08-19T22:46:22.857Z,7.22
2018-08-19T22:48:52.290Z,8.25
2018-08-19T22:51:21.139Z,6.90
2018-08-19T22:53:51.685Z,7.65
2018-08-19T22:56:20.760Z,8.63
2018-08-19T22:58:49.470Z,8.00
2018-08-19T23:01:18.210Z,8.48
2018-08-19T23:03:46.908Z,6.75
2018-08-19T23:06:15.588Z,7.87
2018-08-19T23:08:44.198Z,7.85
2018-08-19T23:11:12.869Z,7.15
2018-08-19T23:13:52.635Z,7.45
2018-08-19T23:16:22.507Z,8.10
2018-08-19T23:18:51.196Z,7.55
2018-08-19T23:21:19.836Z,7.72
2018-08-19T23:23:48.488Z,7.47
2018-08-19T23:26:17.149Z,7.50
2018-08-19T23:28:45.956Z,7.33
2018-08-19T23:31:14.661Z,7.50
2018-08-19T23:33:43.421Z,7.95
2018-08-19T23:36:12.063Z,7.42
2018-08-19T23:38:40.737Z,8.28
2018-08-19T23:41:09.385Z,7.72
2018-08-19T23:43:38.025Z,8.13
2018-08-19T23:46:07.041Z,7.90
2018-08-19T23:48:35.674Z,9.15
2018-08-19T23:51:04.359Z,8.08
2018-08-19T23:53:33.020Z,9.55
2018-08-19T23:56:01.655Z,9.40
2018-08-19T23:58:30.300Z,9.68
